createdAt,value
2022-11-20T00:00:27.135Z,3.40
2022-11-20T00:01:27.253Z,3.37
2022-11-20T00:02:27.170Z,3.34
2022-11-20T00:03:27.091Z,3.34
2022-11-20T00:04:27.096Z,3.36
2022-11-20T00:05:27.078Z,3.34
2022-11-20T00:06:27.082Z,3.34
2022-11-20T00:07:27.150Z,3.36
2022-11-20T00:08:27.073Z,3.36
2022-11-20T00:09:27.026Z,3.34
2022-11-20T00:10:27.030Z,3.32
2022-11-20T00:11:27.011Z,3.31
2022-11-20T00:12:27.022Z,3.29
2022-11-20T00:13:26.982Z,3.29
2022-11-20T00:14:27.013Z,3.31
2022-11-20T00:15:26.975Z,3.32
2022-11-20T00:16:26.991Z,3.31
2022-11-20T00:17:26.982Z,3.34
2022-11-20T00:18:26.964Z,3.34
2022-11-20T00:19:26.921Z,3.36
2022-11-20T00:20:26.959Z,3.40
2022-11-20T00:21:26.905Z,3.37
2022-11-20T00:22:26.899Z,3.40
2022-11-20T00:23:26.883Z,3.37
2022-11-20T00:24:26.887Z,3.40
2022-11-20T00:25:26.883Z,3.42
2022-11-20T00:26:26.863Z,3.37
2022-11-20T00:27:26.840Z,3.40
2022-11-20T00:28:26.841Z,3.41
2022-11-20T00:29:26.825Z,3.42
2022-11-20T00:30:26.853Z,3.41
2022-11-20T00:31:26.843Z,3.41
2022-11-20T00:32:26.794Z,3.40
2022-11-20T00:33:26.773Z,3.42
2022-11-20T00:34:26.778Z,3.44
2022-11-20T00:35:26.761Z,3.44
2022-11-20T00:36:26.768Z,3.44
2022-11-20T00:37:26.747Z,3.44
2022-11-20T00:38:26.739Z,3.40
2022-11-20T00:39:26.710Z,3.40
2022-11-20T00:40:26.720Z,3.41
2022-11-20T00:41:26.692Z,3.36
2022-11-20T00:42:26.722Z,3.34
2022-11-20T00:43:26.676Z,3.28
2022-11-20T00:44:26.673Z,3.22
2022-11-20T00:45:26.654Z,3.19
2022-11-20T00:46:26.658Z,3.21
2022-11-20T00:47:26.628Z,3.22
2022-11-20T00:48:26.655Z,3.23
2022-11-20T00:49:26.626Z,3.23
2022-11-20T00:50:26.611Z,3.22
2022-11-20T00:51:26.583Z,3.25
2022-11-20T00:52:26.600Z,3.23
2022-11-20T00:53:26.571Z,3.26
2022-11-20T00:54:26.595Z,3.28
2022-11-20T00:55:26.539Z,3.29
2022-11-20T00:56:26.547Z,3.28
2022-11-20T00:57:26.785Z,3.28
2022-11-20T00:58:26.518Z,3.26
2022-11-20T00:59:26.501Z,3.23
2022-11-20T01:00:26.533Z,3.19
2022-11-20T01:01:26.720Z,3.19
2022-11-20T01:02:26.496Z,3.16
2022-11-20T01:03:27.298Z,3.16
2022-11-20T01:04:26.459Z,3.18
2022-11-20T01:05:26.445Z,3.18
2022-11-20T01:06:26.463Z,3.21
2022-11-20T01:07:26.505Z,3.19
2022-11-20T01:08:26.447Z,3.21
2022-11-20T01:09:26.393Z,3.19
2022-11-20T01:10:26.411Z,3.19
2022-11-20T01:11:26.382Z,3.18
2022-11-20T01:12:26.398Z,3.16
2022-11-20T01:13:26.354Z,3.19
2022-11-20T01:14:26.363Z,3.16
2022-11-20T01:15:26.337Z,3.18
2022-11-20T01:16:26.328Z,3.14
2022-11-20T01:17:26.332Z,3.14
2022-11-20T01:18:26.356Z,3.13
2022-11-20T01:19:26.311Z,3.08
2022-11-20T01:20:26.296Z,3.08
2022-11-20T01:21:26.269Z,3.07
2022-11-20T01:22:26.274Z,3.08
2022-11-20T01:23:26.278Z,3.10
2022-11-20T01:24:26.320Z,3.10
2022-11-20T01:25:26.241Z,3.10
2022-11-20T01:26:26.259Z,3.10
2022-11-20T01:27:26.220Z,3.08
2022-11-20T01:28:26.231Z,3.07
2022-11-20T01:29:26.188Z,3.08
2022-11-20T01:30:26.213Z,3.07
2022-11-20T01:31:26.170Z,3.08
2022-11-20T01:32:26.187Z,3.08
2022-11-20T01:33:26.146Z,3.08
2022-11-20T01:34:26.151Z,3.07
2022-11-20T01:35:26.129Z,3.07
2022-11-20T01:36:26.141Z,3.11
2022-11-20T01:37:26.124Z,3.13
2022-11-20T01:38:26.086Z,3.18
2022-11-20T01:39:26.120Z,3.16
2022-11-20T01:40:26.101Z,3.18
2022-11-20T01:41:26.088Z,3.18
2022-11-20T01:42:26.048Z,3.19
2022-11-20T01:43:26.055Z,3.21
2022-11-20T01:44:26.027Z,3.22
2022-11-20T01:45:26.025Z,3.18
2022-11-20T01:46:26.036Z,3.16
2022-11-20T01:47:26.010Z,3.14
2022-11-20T01:48:25.990Z,3.13
2022-11-20T01:49:26.003Z,3.13
2022-11-20T01:50:25.969Z,3.11
2022-11-20T01:51:25.978Z,3.13
2022-11-20T01:52:25.955Z,3.13
2022-11-20T01:53:25.952Z,3.11
2022-11-20T01:54:25.938Z,3.13
2022-11-20T01:55:25.942Z,3.13
2022-11-20T01:56:25.908Z,3.11
2022-11-20T01:57:25.898Z,3.13
2022-11-20T01:58:25.899Z,3.16
2022-11-20T01:59:25.884Z,3.18
2022-11-20T02:00:25.857Z,3.13
2022-11-20T02:01:25.923Z,3.07
2022-11-20T02:02:25.835Z,3.01
2022-11-20T02:03:25.851Z,2.95
2022-11-20T02:04:25.832Z,2.86
2022-11-20T02:05:25.822Z,2.83
2022-11-20T02:06:25.819Z,2.82
2022-11-20T02:07:25.834Z,2.77
2022-11-20T02:08:25.773Z,2.72
2022-11-20T02:09:25.773Z,2.72
2022-11-20T06:01:01.749Z,2.60
2022-11-20T06:02:02.743Z,2.57
2022-11-20T06:03:02.794Z,2.57
2022-11-20T06:04:02.726Z,2.60
2022-11-20T06:05:02.718Z,2.57
2022-11-20T06:06:02.699Z,2.61
2022-11-20T06:07:02.786Z,2.61
2022-11-20T06:08:02.664Z,2.65
2022-11-20T06:09:02.649Z,2.64
2022-11-20T06:10:02.652Z,2.69
2022-11-20T06:11:02.636Z,2.71
2022-11-20T06:12:02.653Z,2.72
2022-11-20T06:13:02.601Z,2.75
2022-11-20T06:15:12.967Z,2.79
2022-11-20T06:16:17.658Z,2.79
2022-11-20T06:17:13.954Z,2.82
2022-11-20T06:18:13.957Z,2.83
2022-11-20T06:19:13.919Z,2.87
2022-11-20T06:20:13.896Z,2.87
2022-11-20T06:21:13.898Z,2.87
2022-11-20T06:22:13.820Z,2.86
2022-11-20T06:23:13.873Z,2.86
2022-11-20T06:24:13.830Z,2.86
2022-11-20T06:25:13.799Z,2.86
2022-11-20T06:26:13.785Z,2.87
2022-11-20T06:27:13.777Z,2.89
2022-11-20T06:28:13.759Z,2.93
2022-11-20T06:29:13.769Z,2.92
2022-11-20T06:30:13.759Z,2.92
2022-11-20T06:31:13.732Z,2.93
2022-11-20T06:32:13.713Z,2.95
2022-11-20T06:33:13.737Z,2.98
2022-11-20T06:34:13.702Z,3.00
2022-11-20T06:35:13.706Z,3.00
2022-11-20T06:36:13.667Z,2.98
2022-11-20T06:37:13.675Z,2.97
2022-11-20T06:38:13.653Z,2.97
2022-11-20T06:39:13.676Z,2.98
2022-11-20T06:40:13.629Z,2.98
2022-11-20T06:41:13.629Z,3.01
2022-11-20T06:42:13.601Z,3.00
2022-11-20T06:43:13.629Z,2.97
2022-11-20T06:44:13.581Z,2.92
2022-11-20T06:45:13.621Z,2.93
2022-11-20T06:46:13.570Z,2.90
2022-11-20T06:47:13.594Z,2.87
2022-11-20T06:48:13.537Z,2.89
2022-11-20T06:49:13.570Z,2.89
2022-11-20T06:50:13.520Z,2.86
2022-11-20T06:51:13.545Z,2.85
2022-11-20T06:52:13.501Z,2.87
2022-11-20T06:53:13.526Z,2.87
2022-11-20T06:54:13.477Z,2.86
2022-11-20T06:55:13.487Z,2.87
2022-11-20T06:56:13.467Z,2.85
2022-11-20T06:57:13.457Z,2.85
2022-11-20T06:58:13.445Z,2.80
2022-11-20T06:59:13.474Z,2.80
2022-11-20T07:00:13.410Z,2.80
2022-11-20T07:01:13.626Z,2.79
2022-11-20T07:02:13.391Z,2.77
2022-11-20T07:03:13.403Z,2.75
2022-11-20T07:04:13.400Z,2.75
2022-11-20T07:05:13.378Z,2.75
2022-11-20T07:06:13.345Z,2.75
2022-11-20T07:07:13.398Z,2.80
2022-11-20T07:08:13.338Z,2.80
2022-11-20T07:09:13.332Z,2.82
2022-11-20T07:10:13.341Z,2.85
2022-11-20T07:11:13.311Z,2.87
2022-11-20T07:12:13.285Z,2.89
2022-11-20T07:13:13.287Z,2.93
2022-11-20T07:14:13.266Z,2.95
2022-11-20T07:15:13.275Z,2.97
2022-11-20T07:16:13.258Z,2.97
2022-11-20T07:17:13.243Z,3.01
2022-11-20T07:18:13.232Z,3.03
2022-11-20T07:19:13.241Z,3.05
2022-11-20T07:20:13.215Z,3.08
2022-11-20T07:21:13.208Z,3.10
2022-11-20T07:22:13.221Z,3.11
2022-11-20T07:23:13.179Z,3.13
2022-11-20T07:24:13.163Z,3.13
2022-11-20T07:25:13.162Z,3.14
2022-11-20T07:26:13.137Z,3.18
2022-11-20T07:27:13.150Z,3.19
2022-11-20T07:28:13.151Z,3.19
2022-11-20T07:29:13.130Z,3.19
2022-11-20T07:30:13.097Z,3.18
2022-11-20T07:31:17.545Z,3.22
2022-11-20T07:32:13.081Z,3.23
2022-11-20T07:33:13.076Z,3.23
2022-11-20T07:34:13.078Z,3.25
2022-11-20T07:35:13.052Z,3.28
2022-11-20T07:36:13.030Z,3.28
2022-11-20T07:37:13.046Z,3.32
2022-11-20T07:38:13.009Z,3.34
2022-11-20T07:39:13.041Z,3.36
2022-11-20T07:40:12.989Z,3.40
2022-11-20T07:41:12.997Z,3.37
2022-11-20T07:42:12.973Z,3.37
2022-11-20T07:43:12.966Z,3.41
2022-11-20T07:44:12.965Z,3.37
2022-11-20T07:45:12.945Z,3.40
2022-11-20T07:46:12.950Z,3.42
2022-11-20T07:47:12.934Z,3.45
2022-11-20T07:48:12.905Z,3.47
2022-11-20T07:49:12.905Z,3.48
2022-11-20T07:50:12.887Z,3.50
2022-11-20T07:51:12.905Z,3.53
2022-11-20T07:52:12.920Z,3.53
2022-11-20T07:53:12.870Z,3.55
2022-11-20T07:54:12.868Z,3.56
2022-11-20T07:55:12.852Z,3.60
2022-11-20T07:56:12.830Z,3.60
2022-11-20T07:57:12.810Z,3.62
2022-11-20T07:58:13.721Z,3.62
2022-11-20T07:59:12.898Z,3.63
2022-11-20T08:00:12.802Z,3.63
2022-11-20T08:01:12.841Z,3.63
2022-11-20T08:02:12.773Z,3.66
2022-11-20T08:03:12.750Z,3.68
2022-11-20T08:04:12.747Z,3.66
2022-11-20T08:05:12.730Z,3.68
2022-11-20T08:06:12.731Z,3.68
2022-11-20T08:07:12.859Z,3.68
2022-11-20T08:08:12.720Z,3.68
2022-11-20T08:09:12.710Z,3.66
2022-11-20T08:10:12.709Z,3.65
2022-11-20T08:11:12.667Z,3.58
2022-11-20T08:12:12.678Z,3.56
2022-11-20T08:13:12.641Z,3.53
2022-11-20T08:14:12.655Z,3.45
2022-11-20T08:15:13.457Z,3.42
2022-11-20T08:16:12.629Z,3.42
2022-11-20T08:17:12.597Z,3.44
2022-11-20T08:19:12.592Z,3.40
2022-11-20T08:20:12.606Z,3.40
2022-11-20T08:21:12.582Z,3.40
2022-11-20T08:22:12.575Z,3.41
2022-11-20T08:23:12.538Z,3.41
2022-11-20T08:24:12.563Z,3.42
2022-11-20T08:25:12.519Z,3.42
2022-11-20T08:26:12.524Z,3.45
2022-11-20T08:27:12.532Z,3.42
2022-11-20T08:28:20.148Z,3.42
2022-11-20T08:29:12.489Z,3.37
2022-11-20T08:30:12.484Z,3.37
2022-11-20T08:31:12.459Z,3.36
2022-11-20T08:32:12.467Z,3.36
2022-11-20T08:33:12.450Z,3.34
2022-11-20T08:34:17.661Z,3.36
2022-11-20T08:35:12.419Z,3.40
2022-11-20T08:36:12.413Z,3.42
2022-11-20T08:37:12.395Z,3.40
2022-11-20T08:38:12.407Z,3.40
2022-11-20T08:39:12.396Z,3.42
2022-11-20T08:40:16.970Z,3.40
2022-11-20T08:41:12.360Z,3.40
2022-11-20T08:42:12.362Z,3.37
2022-11-20T08:43:12.333Z,3.40
2022-11-20T08:44:12.341Z,3.40
2022-11-20T08:45:12.327Z,3.42
2022-11-20T08:46:12.315Z,3.44
2022-11-20T08:47:12.308Z,3.42
2022-11-20T08:48:12.290Z,3.42
2022-11-20T08:49:12.266Z,3.41
2022-11-20T08:50:12.269Z,3.44
2022-11-20T08:51:12.251Z,3.44
2022-11-20T08:52:12.256Z,3.41
2022-11-20T08:53:12.249Z,3.37
2022-11-20T08:54:12.239Z,3.40
2022-11-20T08:55:12.211Z,3.42
2022-11-20T08:56:12.216Z,3.41
2022-11-20T08:57:12.188Z,3.45
2022-11-20T08:58:12.204Z,3.48
2022-11-20T08:59:50.652Z,3.56
2022-11-20T09:00:12.608Z,3.59
2022-11-20T09:01:12.209Z,3.63
2022-11-20T09:02:12.147Z,3.68
2022-11-20T09:03:12.132Z,3.73
2022-11-20T09:04:12.140Z,3.76
2022-11-20T09:05:12.101Z,3.83
2022-11-20T09:06:12.106Z,3.84
2022-11-20T09:07:12.211Z,3.87
2022-11-20T09:08:12.130Z,3.92
2022-11-20T09:09:12.051Z,3.92
2022-11-20T09:10:27.330Z,3.98
2022-11-20T09:11:12.071Z,4.01
2022-11-20T09:12:12.036Z,4.04
2022-11-20T09:13:12.016Z,4.05
2022-11-20T09:14:12.081Z,4.08
2022-11-20T09:15:11.995Z,4.12
2022-11-20T09:16:12.007Z,4.14
2022-11-20T09:17:11.971Z,4.17
2022-11-20T09:18:11.988Z,4.19
2022-11-20T09:20:11.985Z,4.23
2022-11-20T09:21:11.974Z,4.26
2022-11-20T09:22:11.938Z,4.28
2022-11-20T09:23:11.943Z,4.30
2022-11-20T09:24:11.933Z,4.31
2022-11-20T09:25:11.896Z,4.30
2022-11-20T09:26:11.926Z,4.30
2022-11-20T09:27:11.874Z,4.31
2022-11-20T09:28:11.877Z,4.31
2022-11-20T09:29:11.854Z,4.31
2022-11-20T09:30:11.860Z,4.31
2022-11-20T09:31:11.826Z,4.31
2022-11-20T09:32:11.856Z,4.30
2022-11-20T09:33:11.808Z,4.28
2022-11-20T09:34:11.814Z,4.30
2022-11-20T09:35:11.989Z,4.32
2022-11-20T09:36:11.797Z,4.35
2022-11-20T09:37:11.776Z,4.38
2022-11-20T09:38:11.786Z,4.41
2022-11-20T09:39:11.746Z,4.42
2022-11-20T09:40:11.744Z,4.42
2022-11-20T09:41:11.718Z,4.44
2022-11-20T09:42:11.723Z,4.50
2022-11-20T09:43:11.700Z,4.49
2022-11-20T09:44:11.721Z,4.50
2022-11-20T09:45:11.685Z,4.50
2022-11-20T09:46:11.680Z,4.53
2022-11-20T09:47:11.662Z,4.56
2022-11-20T09:48:11.684Z,4.58
2022-11-20T09:49:11.644Z,4.59
2022-11-20T09:50:11.664Z,4.60
2022-11-20T09:51:11.618Z,4.60
2022-11-20T09:52:11.625Z,4.63
2022-11-20T09:53:11.593Z,4.63
2022-11-20T09:54:11.607Z,4.62
2022-11-20T09:55:11.574Z,4.63
2022-11-20T09:56:11.613Z,4.63
2022-11-20T09:57:11.554Z,4.63
2022-11-20T09:58:11.559Z,4.62
2022-11-20T09:59:11.534Z,4.62
2022-11-20T10:00:11.547Z,4.63
2022-11-20T10:01:11.601Z,4.60
2022-11-20T10:02:11.515Z,4.60
2022-11-20T10:03:11.498Z,4.59
2022-11-20T10:04:11.518Z,4.58
2022-11-20T10:05:11.463Z,4.58
2022-11-20T10:06:11.476Z,4.59
2022-11-20T10:07:31.298Z,4.62
2022-11-20T10:08:11.530Z,4.62
2022-11-20T10:09:11.434Z,4.60
2022-11-20T10:10:11.454Z,4.62
2022-11-20T10:11:11.418Z,4.62
2022-11-20T10:12:11.443Z,4.62
2022-11-20T10:13:11.391Z,4.62
2022-11-20T10:14:11.395Z,4.66
2022-11-20T10:15:11.359Z,4.68
2022-11-20T10:16:11.373Z,4.68
2022-11-20T10:17:11.346Z,4.71
2022-11-20T10:18:11.374Z,4.71
2022-11-20T10:19:11.326Z,4.70
2022-11-20T10:20:11.340Z,4.71
2022-11-20T10:21:11.301Z,4.70
2022-11-20T10:22:11.353Z,4.71
2022-11-20T10:23:11.281Z,4.71
2022-11-20T10:24:11.317Z,4.75
2022-11-20T10:25:11.263Z,4.77
2022-11-20T10:26:11.290Z,4.77
2022-11-20T10:27:11.236Z,4.78
2022-11-20T10:28:11.242Z,4.82
2022-11-20T10:29:11.229Z,4.84
2022-11-20T10:30:11.238Z,4.84
2022-11-20T10:31:11.191Z,4.87
2022-11-20T10:32:11.200Z,4.87
2022-11-20T10:33:11.177Z,4.89
2022-11-20T10:34:12.634Z,4.87
2022-11-20T10:35:11.149Z,4.89
2022-11-20T10:36:11.162Z,4.90
2022-11-20T10:37:11.131Z,4.93
2022-11-20T10:38:11.167Z,4.92
2022-11-20T10:39:11.116Z,4.92
2022-11-20T10:40:11.120Z,4.92
2022-11-20T10:41:11.093Z,4.93
2022-11-20T10:42:11.106Z,4.92
2022-11-20T10:43:11.069Z,4.93
2022-11-20T10:44:11.089Z,4.92
2022-11-20T10:45:11.050Z,4.92
2022-11-20T10:46:11.060Z,4.96
2022-11-20T10:47:11.051Z,4.97
2022-11-20T10:48:11.035Z,4.97
2022-11-20T10:49:11.005Z,4.96
2022-11-20T10:50:11.015Z,4.99
2022-11-20T10:51:10.992Z,4.99
2022-11-20T10:52:10.988Z,4.99
2022-11-20T10:53:10.992Z,5.02
2022-11-20T10:54:10.970Z,5.00
2022-11-20T10:55:10.945Z,5.02
2022-11-20T10:56:10.951Z,5.04
2022-11-20T10:57:10.923Z,5.05
2022-11-20T10:58:10.930Z,5.07
2022-11-20T10:59:10.914Z,5.08
2022-11-20T11:00:10.964Z,5.07
2022-11-20T11:01:10.896Z,5.08
2022-11-20T11:02:10.883Z,5.10
2022-11-20T11:03:10.858Z,5.12
2022-11-20T11:04:10.883Z,5.14
2022-11-20T11:05:14.432Z,5.17
2022-11-20T11:06:10.844Z,5.15
2022-11-20T11:07:10.850Z,5.17
2022-11-20T11:08:10.823Z,5.17
2022-11-20T11:09:10.793Z,5.18
2022-11-20T11:10:10.839Z,5.18
2022-11-20T11:11:10.785Z,5.15
2022-11-20T11:12:10.782Z,5.17
2022-11-20T11:13:10.760Z,5.18
2022-11-20T11:14:10.761Z,5.20
2022-11-20T11:15:10.747Z,5.23
2022-11-20T11:16:10.760Z,5.25
2022-11-20T11:17:16.730Z,5.26
2022-11-20T11:18:10.712Z,5.28
2022-11-20T11:19:10.710Z,5.28
2022-11-20T11:20:10.694Z,5.29
2022-11-20T11:21:16.695Z,5.29
2022-11-20T11:22:10.676Z,5.32
2022-11-20T11:23:10.655Z,5.30
2022-11-20T11:24:40.611Z,5.32
2022-11-20T11:25:10.632Z,5.33
2022-11-20T11:26:10.664Z,5.35
2022-11-20T11:27:16.508Z,5.33
2022-11-20T11:28:10.613Z,5.35
2022-11-20T11:29:10.588Z,5.33
2022-11-20T11:30:10.592Z,5.35
2022-11-20T11:31:10.564Z,5.35
2022-11-20T11:32:10.583Z,5.36
2022-11-20T11:33:10.571Z,5.38
2022-11-20T11:34:10.544Z,5.38
2022-11-20T11:35:10.543Z,5.41
2022-11-20T11:36:10.528Z,5.43
2022-11-20T11:37:10.503Z,5.43
2022-11-20T11:38:10.508Z,5.43
2022-11-20T11:39:10.515Z,5.44
2022-11-20T11:40:26.193Z,5.43
2022-11-20T11:41:10.482Z,5.41
2022-11-20T11:42:10.464Z,5.43
2022-11-20T11:43:10.443Z,5.44
2022-11-20T11:44:10.442Z,5.46
2022-11-20T11:45:10.446Z,5.44
2022-11-20T11:46:10.421Z,5.46
2022-11-20T11:47:10.392Z,5.48
2022-11-20T11:48:10.404Z,5.48
2022-11-20T11:49:10.375Z,5.50
2022-11-20T11:50:10.410Z,5.51
2022-11-20T11:51:10.355Z,5.50
2022-11-20T11:52:10.346Z,5.51
2022-11-20T11:53:10.353Z,5.50
2022-11-20T11:54:10.341Z,5.50
2022-11-20T11:55:11.928Z,5.51
2022-11-20T11:56:10.342Z,5.54
2022-11-20T11:57:10.292Z,5.56
2022-11-20T11:58:10.290Z,5.57
2022-11-20T11:59:10.265Z,5.61
2022-11-20T12:00:10.293Z,5.64
2022-11-20T12:01:10.247Z,5.66
2022-11-20T12:02:10.292Z,5.68
2022-11-20T12:03:10.232Z,5.69
2022-11-20T12:04:10.213Z,5.72
2022-11-20T12:05:10.244Z,5.76
2022-11-20T12:06:10.201Z,5.82
2022-11-20T12:07:38.847Z,5.86
2022-11-20T12:08:12.730Z,5.90
2022-11-20T12:09:10.184Z,5.91
2022-11-20T12:10:10.213Z,5.93
2022-11-20T12:11:10.194Z,5.94
2022-11-20T12:12:10.128Z,5.97
2022-11-20T12:13:10.142Z,5.97
2022-11-20T12:14:10.113Z,5.98
2022-11-20T12:15:10.118Z,5.99
2022-11-20T12:16:10.116Z,5.99
2022-11-20T12:17:16.124Z,6.02
2022-11-20T12:18:10.070Z,6.01
2022-11-20T12:19:10.074Z,6.02
2022-11-20T12:20:10.066Z,6.01
2022-11-20T12:21:10.064Z,5.98
2022-11-20T12:22:10.042Z,5.99
2022-11-20T12:23:10.042Z,5.98
2022-11-20T12:24:10.011Z,6.02
2022-11-20T12:25:10.014Z,6.02
2022-11-20T12:26:09.977Z,6.04
2022-11-20T12:27:09.986Z,6.07
2022-11-20T12:28:09.959Z,6.08
2022-11-20T12:29:09.967Z,6.05
2022-11-20T12:30:09.934Z,6.08
2022-11-20T12:31:09.937Z,6.09
2022-11-20T12:32:09.925Z,6.09
2022-11-20T12:33:09.941Z,6.08
2022-11-20T12:34:09.890Z,6.11
2022-11-20T12:35:11.540Z,6.09
2022-11-20T12:36:09.875Z,6.11
2022-11-20T12:37:09.891Z,6.11
2022-11-20T12:38:09.876Z,6.12
2022-11-20T12:39:09.901Z,6.12
2022-11-20T12:40:09.830Z,6.12
2022-11-20T12:41:09.830Z,6.12
2022-11-20T12:42:09.801Z,6.12
2022-11-20T12:43:09.807Z,6.12
2022-11-20T12:44:09.808Z,6.14
2022-11-20T12:45:09.794Z,6.12
2022-11-20T12:46:09.758Z,6.14
2022-11-20T12:47:09.771Z,6.16
2022-11-20T12:48:09.739Z,6.16
2022-11-20T12:49:09.759Z,6.17
2022-11-20T12:50:09.726Z,6.19
2022-11-20T12:51:16.856Z,6.19
2022-11-20T12:52:09.709Z,6.17
2022-11-20T12:53:09.700Z,6.17
2022-11-20T12:54:09.677Z,6.16
2022-11-20T12:55:09.680Z,6.16
2022-11-20T12:56:09.658Z,6.17
2022-11-20T12:57:09.692Z,6.17
2022-11-20T12:58:09.668Z,6.17
2022-11-20T12:59:09.663Z,6.17
2022-11-20T13:00:09.939Z,6.17
2022-11-20T13:01:10.408Z,6.17
2022-11-20T13:02:09.597Z,6.17
2022-11-20T13:03:09.605Z,6.20
2022-11-20T13:04:10.695Z,6.19
2022-11-20T13:05:09.566Z,6.22
2022-11-20T13:06:09.550Z,6.19
2022-11-20T13:07:09.661Z,6.20
2022-11-20T13:08:09.523Z,6.17
2022-11-20T13:09:09.550Z,6.17
2022-11-20T13:10:12.936Z,6.14
2022-11-20T13:11:09.519Z,6.16
2022-11-20T13:12:09.480Z,6.16
2022-11-20T13:13:09.482Z,6.16
2022-11-20T13:14:09.473Z,6.14
2022-11-20T13:15:09.468Z,6.14
2022-11-20T13:16:09.437Z,6.12
2022-11-20T13:17:09.437Z,6.12
2022-11-20T13:18:09.418Z,6.14
2022-11-20T13:19:09.424Z,6.14
2022-11-20T13:20:09.415Z,6.12
2022-11-20T13:21:09.405Z,6.11
2022-11-20T13:22:09.373Z,6.12
2022-11-20T13:23:09.377Z,6.12
2022-11-20T13:24:09.372Z,6.14
2022-11-20T13:25:13.800Z,6.12
2022-11-20T13:26:09.336Z,6.12
2022-11-20T13:27:09.346Z,6.11
2022-11-20T13:28:09.308Z,6.11
2022-11-20T13:29:09.333Z,6.11
2022-11-20T13:30:09.281Z,6.12
2022-11-20T13:31:09.299Z,6.11
2022-11-20T13:32:09.258Z,6.11
2022-11-20T13:33:09.281Z,6.11
2022-11-20T13:34:09.245Z,6.14
2022-11-20T13:35:09.273Z,6.14
2022-11-20T13:36:09.220Z,6.11
2022-11-20T13:37:09.221Z,6.14
2022-11-20T13:38:09.210Z,6.12
2022-11-20T13:39:09.205Z,6.16
2022-11-20T13:40:09.181Z,6.17
2022-11-20T13:41:09.204Z,6.19
2022-11-20T13:42:09.155Z,6.20
2022-11-20T13:43:09.172Z,6.20
2022-11-20T13:44:09.342Z,6.19
2022-11-20T13:45:09.141Z,6.17
2022-11-20T13:46:09.135Z,6.17
2022-11-20T13:47:09.125Z,6.20
2022-11-20T13:48:09.087Z,6.19
2022-11-20T13:49:09.098Z,6.17
2022-11-20T13:50:09.068Z,6.16
2022-11-20T13:51:09.097Z,6.09
2022-11-20T13:52:09.050Z,6.08
2022-11-20T13:53:09.054Z,6.05
2022-11-20T13:54:09.023Z,6.01
2022-11-20T13:55:09.031Z,6.01
2022-11-20T13:56:09.036Z,6.02
2022-11-20T13:57:09.003Z,6.02
2022-11-20T13:58:08.978Z,6.02
2022-11-20T13:59:14.590Z,6.02
2022-11-20T14:00:09.077Z,5.99
2022-11-20T14:01:09.014Z,5.99
2022-11-20T14:02:10.301Z,5.98
2022-11-20T14:03:08.975Z,5.97
2022-11-20T14:04:08.962Z,5.98
2022-11-20T14:05:08.926Z,5.98
2022-11-20T14:06:08.981Z,5.98
2022-11-20T14:07:08.974Z,5.98
2022-11-20T14:08:08.871Z,5.94
2022-11-20T14:09:08.889Z,5.91
2022-11-20T14:10:08.991Z,5.91
2022-11-20T14:11:08.849Z,5.89
2022-11-20T14:12:08.849Z,5.91
2022-11-20T14:13:08.844Z,5.90
2022-11-20T14:14:08.844Z,5.93
2022-11-20T14:15:08.817Z,5.91
2022-11-20T14:16:08.802Z,5.91
2022-11-20T14:17:08.824Z,5.93
2022-11-20T14:18:08.776Z,5.94
2022-11-20T14:19:08.778Z,5.94
2022-11-20T14:20:08.779Z,5.94
2022-11-20T14:21:08.764Z,5.98
2022-11-20T14:22:08.730Z,5.98
2022-11-20T14:23:08.745Z,5.99
2022-11-20T14:24:08.744Z,6.01
2022-11-20T14:25:08.710Z,6.02
2022-11-20T14:26:08.684Z,6.01
2022-11-20T14:27:08.732Z,5.99
2022-11-20T14:28:08.659Z,6.02
2022-11-20T14:29:08.717Z,6.02
2022-11-20T14:30:08.715Z,6.02
2022-11-20T14:31:08.688Z,6.04
2022-11-20T14:32:08.653Z,6.05
2022-11-20T14:33:08.621Z,6.05
2022-11-20T14:34:08.681Z,6.04
2022-11-20T14:35:08.624Z,6.04
2022-11-20T14:36:08.593Z,6.05
2022-11-20T14:37:11.426Z,6.07
2022-11-20T14:38:08.716Z,6.07
2022-11-20T14:39:08.584Z,6.05
2022-11-20T14:40:08.553Z,6.07
2022-11-20T14:41:08.566Z,6.08
2022-11-20T14:42:08.512Z,6.07
2022-11-20T14:43:08.510Z,6.08
2022-11-20T14:44:09.302Z,6.09
2022-11-20T14:45:08.501Z,6.09
2022-11-20T14:46:08.451Z,6.09
2022-11-20T14:47:08.476Z,6.09
2022-11-20T14:48:08.460Z,6.07
2022-11-20T14:49:08.450Z,6.04
2022-11-20T14:50:10.087Z,6.05
2022-11-20T14:51:08.430Z,6.04
2022-11-20T14:52:08.389Z,6.05
2022-11-20T14:53:08.436Z,6.05
2022-11-20T14:54:08.388Z,6.05
2022-11-20T14:55:08.379Z,6.05
2022-11-20T14:56:08.369Z,6.04
2022-11-20T14:57:08.353Z,6.02
2022-11-20T14:58:08.336Z,6.04
2022-11-20T14:59:08.341Z,6.04
2022-11-20T15:00:08.316Z,6.05
2022-11-20T15:01:08.323Z,6.07
2022-11-20T15:02:08.307Z,6.07
2022-11-20T15:03:08.375Z,6.07
2022-11-20T15:04:08.331Z,6.05
2022-11-20T15:05:08.275Z,6.05
2022-11-20T15:06:08.243Z,6.05
2022-11-20T15:07:08.267Z,6.07
2022-11-20T15:08:08.378Z,6.08
2022-11-20T15:09:08.271Z,6.08
2022-11-20T15:10:08.222Z,6.09
2022-11-20T15:11:08.219Z,6.11
2022-11-20T15:12:08.226Z,6.09
2022-11-20T15:13:12.653Z,6.09
2022-11-20T15:14:08.168Z,6.09
2022-11-20T15:15:08.172Z,6.12
2022-11-20T15:16:08.140Z,6.11
2022-11-20T15:17:08.131Z,6.12
2022-11-20T15:18:08.129Z,6.14
2022-11-20T15:19:08.127Z,6.12
2022-11-20T15:20:08.137Z,6.12
2022-11-20T15:21:08.103Z,6.11
2022-11-20T15:22:08.068Z,6.12
2022-11-20T15:23:08.075Z,6.11
2022-11-20T15:24:08.053Z,6.11
2022-11-20T15:25:08.054Z,6.11
2022-11-20T15:26:08.055Z,6.09
2022-11-20T15:27:08.029Z,6.08
2022-11-20T15:28:08.006Z,6.08
2022-11-20T15:29:08.007Z,6.08
2022-11-20T15:30:07.992Z,6.09
2022-11-20T15:31:07.986Z,6.08
2022-11-20T15:32:13.203Z,6.11
2022-11-20T15:33:07.999Z,6.09
2022-11-20T15:34:07.964Z,6.08
2022-11-20T15:35:07.960Z,6.07
2022-11-20T15:36:07.923Z,6.08
2022-11-20T15:37:10.465Z,6.09
2022-11-20T15:38:08.125Z,6.08
2022-11-20T15:39:07.929Z,6.11
2022-11-20T15:40:07.887Z,6.08
2022-11-20T15:41:07.884Z,6.09
2022-11-20T15:42:07.866Z,6.09
2022-11-20T15:43:13.001Z,6.08
2022-11-20T15:44:07.857Z,6.09
2022-11-20T15:45:07.843Z,6.08
2022-11-20T15:46:07.804Z,6.09
2022-11-20T15:47:07.814Z,6.11
2022-11-20T15:48:07.799Z,6.09
2022-11-20T15:49:07.791Z,6.09
2022-11-20T15:50:07.795Z,6.11
2022-11-20T15:51:07.779Z,6.09
2022-11-20T15:52:07.760Z,6.08
2022-11-20T15:53:08.466Z,6.11
2022-11-20T15:54:07.720Z,6.11
2022-11-20T15:55:09.810Z,6.09
2022-11-20T15:56:07.699Z,6.09
2022-11-20T15:57:07.721Z,6.11
2022-11-20T15:58:07.704Z,6.09
2022-11-20T15:59:07.701Z,6.08
2022-11-20T16:00:07.698Z,6.09
2022-11-20T16:01:07.762Z,6.07
2022-11-20T16:02:07.691Z,6.11
2022-11-20T16:03:07.704Z,6.14
2022-11-20T16:04:07.671Z,6.11
2022-11-20T16:05:07.705Z,6.12
2022-11-20T16:06:07.689Z,6.12
2022-11-20T16:07:07.688Z,6.11
2022-11-20T16:08:11.533Z,6.11
2022-11-20T16:09:07.626Z,6.12
2022-11-20T16:10:07.622Z,6.14
2022-11-20T16:11:07.612Z,6.12
2022-11-20T16:12:07.576Z,6.12
2022-11-20T16:13:07.749Z,6.11
2022-11-20T16:14:07.556Z,6.08
2022-11-20T16:15:12.327Z,6.11
2022-11-20T16:16:07.663Z,6.11
2022-11-20T16:17:08.334Z,6.12
2022-11-20T16:18:07.544Z,6.14
2022-11-20T16:19:07.779Z,6.12
2022-11-20T16:20:07.524Z,6.17
2022-11-20T16:21:07.590Z,6.17
2022-11-20T16:22:08.379Z,6.16
2022-11-20T16:23:07.525Z,6.17
2022-11-20T16:24:07.498Z,6.14
2022-11-20T16:25:07.462Z,6.17
2022-11-20T16:26:07.467Z,6.17
2022-11-20T16:27:07.487Z,6.16
2022-11-20T16:28:07.506Z,6.17
2022-11-20T16:29:07.511Z,6.16
2022-11-20T16:30:07.454Z,6.16
2022-11-20T16:31:07.459Z,6.17
2022-11-20T16:32:07.476Z,6.19
2022-11-20T16:33:07.422Z,6.19
2022-11-20T16:34:11.804Z,6.20
2022-11-20T16:35:07.379Z,6.20
2022-11-20T16:36:07.383Z,6.24
2022-11-20T16:37:07.316Z,6.20
2022-11-20T16:38:07.327Z,6.22
2022-11-20T16:39:07.311Z,6.22
2022-11-20T16:40:07.329Z,6.22
2022-11-20T16:41:07.352Z,6.24
2022-11-20T16:42:07.339Z,6.22
2022-11-20T16:43:07.253Z,6.24
2022-11-20T16:44:07.306Z,6.24
2022-11-20T16:45:07.538Z,6.24
2022-11-20T16:46:07.277Z,6.24
2022-11-20T16:47:07.222Z,6.24
2022-11-20T16:48:07.226Z,6.26
2022-11-20T16:49:07.239Z,6.24
2022-11-20T16:50:07.192Z,6.24
2022-11-20T16:51:07.270Z,6.22
2022-11-20T16:52:07.206Z,6.24
2022-11-20T16:53:07.197Z,6.24
2022-11-20T16:54:07.222Z,6.24
2022-11-20T16:55:07.131Z,6.22
2022-11-20T16:56:07.219Z,6.22
2022-11-20T16:57:07.111Z,6.22
2022-11-20T16:58:07.121Z,6.24
2022-11-20T16:59:07.102Z,6.20
2022-11-20T17:00:07.076Z,6.24
2022-11-20T17:01:07.161Z,6.24
2022-11-20T17:02:07.112Z,6.24
2022-11-20T17:03:07.040Z,6.22
2022-11-20T17:04:07.065Z,6.26
2022-11-20T17:05:07.034Z,6.26
2022-11-20T17:06:07.622Z,6.26
2022-11-20T17:07:08.267Z,6.28
2022-11-20T17:08:07.192Z,6.28
2022-11-20T17:09:07.001Z,6.27
2022-11-20T17:10:07.010Z,6.27
2022-11-20T17:11:06.941Z,6.28
2022-11-20T17:12:06.942Z,6.30